Time;durP1;ratioP1;P1;durP2;ratioP2;P2;SDS_P1;SDS_P2;PMS_P1;PMS_P2;Temp;Humidity;BMP_temperature;BMP_pressure;BME280_temperature;BME280_humidity;BME280_pressure;Samples;Min_cycle;Max_cycle;Signal;HPM_P1;HPM_P2
2022/08/20 00:02:19;;;;;;;9.80;8.90;;;20.40;99.90;;;;;;5034486;28;20190;-64
2022/08/20 00:04:45;;;;;;;9.93;9.00;;;20.40;99.90;;;;;;5034601;28;20188;-64
2022/08/20 00:07:12;;;;;;;11.10;10.00;;;20.40;99.90;;;;;;5034586;28;20261;-64
2022/08/20 00:09:37;;;;;;;10.27;9.03;;;20.20;99.90;;;;;;5034862;28;20183;-64
2022/08/20 00:12:07;;;;;;;9.73;8.83;;;20.20;99.90;;;;;;5033980;28;20183;-64
2022/08/20 00:14:34;;;;;;;10.43;9.33;;;20.10;99.90;;;;;;5034482;28;20206;-64
2022/08/20 00:17:00;;;;;;;10.13;9.17;;;20.00;99.90;;;;;;5034587;28;20693;-64
2022/08/20 00:19:26;;;;;;;11.80;10.10;;;19.90;99.90;;;;;;5034667;28;20172;-64
2022/08/20 00:21:51;;;;;;;11.57;9.83;;;19.90;99.90;;;;;;5034472;28;20237;-64
2022/08/20 00:24:17;;;;;;;10.63;9.63;;;19.80;99.90;;;;;;5032499;28;20560;-65
2022/08/20 00:26:43;;;;;;;10.60;9.50;;;19.80;99.90;;;;;;5034489;28;20262;-63
2022/08/20 00:29:08;;;;;;;10.13;8.47;;;19.70;99.90;;;;;;5034405;28;20683;-64
2022/08/20 00:31:34;;;;;;;11.87;9.27;;;19.70;99.90;;;;;;5034499;28;20176;-64
2022/08/20 00:33:59;;;;;;;11.17;10.07;;;19.50;99.90;;;;;;5034024;28;20217;-65
2022/08/20 00:36:25;;;;;;;10.87;8.50;;;19.50;99.90;;;;;;5034448;28;20548;-63
2022/08/20 00:38:51;;;;;;;10.63;8.70;;;19.50;99.90;;;;;;5034451;28;20179;-63
2022/08/20 00:41:21;;;;;;;8.57;7.77;;;19.40;99.90;;;;;;5033236;28;20179;-63
2022/08/20 00:44:07;;;;;;;8.37;7.60;;;19.30;99.90;;;;;;5034028;28;20257;-63
2022/08/20 00:46:33;;;;;;;8.53;7.50;;;19.20;99.90;;;;;;5034808;28;20536;-63
2022/08/20 00:49:01;;;;;;;8.87;7.97;;;19.20;99.90;;;;;;5034902;28;20310;-62
2022/08/20 00:51:37;;;;;;;8.93;6.83;;;19.20;99.90;;;;;;5034763;28;20616;-62
2022/08/20 00:54:32;;;;;;;7.47;6.80;;;19.20;99.90;;;;;;5033900;28;20195;-63
2022/08/20 00:57:02;;;;;;;7.07;6.43;;;19.10;99.90;;;;;;5009859;28;20758;-64
2022/08/20 00:59:32;;;;;;;8.00;7.20;;;19.10;99.90;;;;;;5015584;28;20259;-65
2022/08/20 01:02:00;;;;;;;10.60;7.13;;;19.10;99.90;;;;;;5034138;28;20655;-65
2022/08/20 01:04:32;;;;;;;7.30;6.67;;;19.10;99.90;;;;;;5033128;28;20213;-65
2022/08/20 01:06:58;;;;;;;8.90;7.50;;;19.10;99.90;;;;;;5034022;28;20184;-62
2022/08/20 01:09:24;;;;;;;7.40;6.70;;;19.10;99.90;;;;;;5033609;28;20237;-66
2022/08/20 01:11:50;;;;;;;9.60;7.40;;;19.20;99.90;;;;;;5034006;28;20538;-64
2022/08/20 01:14:58;;;;;;;9.37;7.80;;;19.20;99.90;;;;;;5033020;28;20301;-65
2022/08/20 01:17:07;;;;;;;7.97;7.17;;;19.20;99.90;;;;;;5033336;28;20227;-65
2022/08/20 01:19:56;;;;;;;8.33;7.00;;;19.30;99.90;;;;;;5033368;28;20206;-65
2022/08/20 01:25:44;;;;;;;8.13;7.00;;;19.30;99.90;;;;;;5013063;28;20186;-64
2022/08/20 01:28:13;;;;;;;11.13;7.67;;;19.20;99.90;;;;;;5019751;28;20268;-64
2022/08/20 01:30:40;;;;;;;8.57;7.30;;;19.20;99.90;;;;;;5033595;28;20229;-65
2022/08/20 01:33:06;;;;;;;9.40;8.10;;;19.20;99.90;;;;;;5033194;28;20206;-66
2022/08/20 01:35:39;;;;;;;10.93;7.83;;;19.20;99.90;;;;;;5032915;28;20653;-64
2022/08/20 01:38:06;;;;;;;8.77;7.90;;;19.20;99.90;;;;;;5033212;28;20167;-64
2022/08/20 01:40:40;;;;;;;8.73;7.73;;;19.20;99.90;;;;;;5033204;28;20175;-64
2022/08/20 01:43:07;;;;;;;9.47;8.23;;;19.10;99.90;;;;;;5032865;28;20218;-65
2022/08/20 01:45:35;;;;;;;9.63;8.03;;;19.10;99.90;;;;;;5031424;28;20187;-65
2022/08/20 01:48:01;;;;;;;9.63;8.50;;;19.10;99.90;;;;;;5033107;28;20264;-65
2022/08/20 01:50:29;;;;;;;9.43;8.53;;;19.00;99.90;;;;;;5032693;28;20215;-65
2022/08/20 01:53:11;;;;;;;8.80;7.90;;;19.00;99.90;;;;;;5033017;28;20633;-64
2022/08/20 01:55:37;;;;;;;9.47;8.47;;;19.00;99.90;;;;;;5032485;28;20195;-64
2022/08/20 01:58:03;;;;;;;9.07;7.93;;;19.00;99.90;;;;;;5032950;28;20183;-64
2022/08/20 02:00:29;;;;;;;9.93;8.87;;;19.10;99.90;;;;;;5032513;28;20191;-64
2022/08/20 02:02:54;;;;;;;12.43;9.10;;;19.10;99.90;;;;;;5032826;28;20572;-64
2022/08/20 02:05:20;;;;;;;9.73;8.57;;;19.10;99.90;;;;;;5032287;28;20237;-64
2022/08/20 02:07:47;;;;;;;9.90;8.33;;;19.10;99.90;;;;;;5032968;28;20179;-64
2022/08/20 02:10:14;;;;;;;11.23;7.87;;;19.10;99.90;;;;;;5032437;28;20187;-65
2022/08/20 02:12:40;;;;;;;14.00;9.20;;;19.20;99.90;;;;;;5032676;28;20175;-65
2022/08/20 02:15:09;;;;;;;12.03;9.20;;;19.10;99.90;;;;;;5032050;28;20692;-64
2022/08/20 02:17:35;;;;;;;12.83;8.80;;;19.10;99.90;;;;;;5031165;28;20249;-65
2022/08/20 02:20:07;;;;;;;11.53;9.33;;;19.10;99.90;;;;;;5032702;28;20700;-65
2022/08/20 02:22:41;;;;;;;10.87;9.77;;;19.10;99.90;;;;;;5031564;28;20629;-64
2022/08/20 02:25:08;;;;;;;12.93;10.20;;;19.10;99.90;;;;;;5031995;28;20640;-64
2022/08/20 02:27:35;;;;;;;11.30;9.90;;;19.10;99.90;;;;;;5032966;28;20226;-67
2022/08/20 02:30:06;;;;;;;14.30;10.30;;;19.00;99.90;;;;;;5033067;28;20183;-67
2022/08/20 02:32:31;;;;;;;14.43;10.07;;;19.00;99.90;;;;;;5033069;28;20179;-66
2022/08/20 02:34:57;;;;;;;11.00;9.90;;;19.10;99.90;;;;;;5032511;28;20199;-65
2022/08/20 02:37:22;;;;;;;12.40;9.60;;;19.10;99.90;;;;;;5032967;28;20182;-67
2022/08/20 02:39:48;;;;;;;11.20;9.87;;;19.10;99.90;;;;;;5032484;28;20601;-67
2022/08/20 02:42:14;;;;;;;11.97;8.77;;;19.10;99.90;;;;;;5032568;28;20207;-66
2022/08/20 02:44:39;;;;;;;10.70;8.03;;;19.10;99.90;;;;;;5032482;28;20575;-67
2022/08/20 02:47:06;;;;;;;10.70;8.57;;;19.10;99.90;;;;;;5032932;28;20187;-68
2022/08/20 02:49:32;;;;;;;10.23;8.33;;;19.20;99.90;;;;;;5032750;28;20600;-66
2022/08/20 02:51:58;;;;;;;10.70;7.93;;;19.10;99.90;;;;;;5032322;28;20656;-66
2022/08/20 02:54:24;;;;;;;8.37;7.67;;;19.20;99.90;;;;;;5031071;28;20191;-67
2022/08/20 02:56:50;;;;;;;10.53;7.87;;;19.30;99.90;;;;;;5032067;28;20214;-67
2022/08/20 02:59:17;;;;;;;8.70;7.90;;;19.30;99.90;;;;;;5031976;28;20625;-68
2022/08/20 03:01:43;;;;;;;10.77;9.17;;;19.30;99.90;;;;;;5032358;28;20171;-68
2022/08/20 03:04:08;;;;;;;9.70;8.60;;;19.30;99.90;;;;;;5031606;28;20222;-68
2022/08/20 03:06:34;;;;;;;12.13;9.40;;;19.40;99.90;;;;;;5032143;28;20179;-68
2022/08/20 03:08:59;;;;;;;11.03;9.93;;;19.40;99.90;;;;;;5032568;28;20175;-67
2022/08/20 03:11:25;;;;;;;11.00;9.90;;;19.30;99.90;;;;;;5032218;28;20179;-65
2022/08/20 03:13:51;;;;;;;13.10;9.63;;;19.40;99.90;;;;;;5032072;28;20199;-67
2022/08/20 03:16:17;;;;;;;11.03;9.93;;;19.40;99.90;;;;;;5031763;28;20699;-67
2022/08/20 03:18:45;;;;;;;12.83;10.47;;;19.40;99.90;;;;;;5032511;28;20206;-68
2022/08/20 03:21:11;;;;;;;12.10;10.80;;;19.50;99.90;;;;;;5030659;28;20258;-66
2022/08/20 03:23:38;;;;;;;10.23;8.80;;;19.50;99.90;;;;;;5030959;28;20334;-65
2022/08/20 03:26:06;;;;;;;10.40;9.30;;;19.60;99.90;;;;;;5031885;28;20574;-68
2022/08/20 03:28:32;;;;;;;10.23;9.23;;;19.60;99.90;;;;;;5032271;28;20579;-69
2022/08/20 03:30:58;;;;;;;10.97;9.30;;;19.60;99.90;;;;;;5032117;28;20183;-67
2022/08/20 03:33:25;;;;;;;12.73;10.37;;;19.50;99.90;;;;;;5032033;28;20568;-70
2022/08/20 03:35:50;;;;;;;11.23;9.80;;;19.50;99.90;;;;;;5031742;28;20234;-69
2022/08/20 03:38:19;;;;;;;11.60;10.50;;;19.50;99.90;;;;;;5031696;28;20206;-68
2022/08/20 03:40:44;;;;;;;12.63;10.63;;;19.60;99.90;;;;;;5031862;28;20188;-70
2022/08/20 03:43:11;;;;;;;16.80;11.50;;;19.60;99.90;;;;;;5031641;28;20575;-65
2022/08/20 03:45:38;;;;;;;13.53;11.70;;;19.60;99.90;;;;;;5030212;28;20180;-68
2022/08/20 03:48:07;;;;;;;12.80;10.37;;;19.60;99.90;;;;;;5032303;28;20514;-66
2022/08/20 03:50:34;;;;;;;12.30;11.07;;;19.60;99.90;;;;;;5030572;28;20187;-67
2022/08/20 03:53:00;;;;;;;9.67;8.73;;;19.50;99.90;;;;;;5032232;28;20200;-67
2022/08/20 03:55:29;;;;;;;10.57;9.27;;;19.50;99.90;;;;;;5031273;28;20563;-68
2022/08/20 03:57:58;;;;;;;10.27;9.23;;;19.50;99.90;;;;;;5032330;28;20164;-67
2022/08/20 04:00:31;;;;;;;10.57;7.87;;;19.50;99.90;;;;;;5030480;28;20183;-67
2022/08/20 04:02:56;;;;;;;9.30;8.50;;;19.50;99.90;;;;;;5032185;28;20196;-66
2022/08/20 04:05:24;;;;;;;8.57;7.87;;;19.60;99.90;;;;;;5031526;28;20206;-66
2022/08/20 04:07:50;;;;;;;8.13;7.43;;;19.60;99.90;;;;;;5032161;28;20258;-66
2022/08/20 04:10:16;;;;;;;10.80;7.60;;;19.60;99.90;;;;;;5031609;28;20187;-70
2022/08/20 04:12:42;;;;;;;9.47;8.37;;;19.60;99.90;;;;;;5031731;28;20540;-68
2022/08/20 04:15:09;;;;;;;8.60;7.83;;;19.40;99.90;;;;;;5031357;28;20219;-70
2022/08/20 04:17:37;;;;;;;10.77;9.03;;;19.50;99.90;;;;;;5033802;28;20235;-69
2022/08/20 04:20:05;;;;;;;10.20;9.27;;;19.50;99.90;;;;;;5035505;28;20175;-66
2022/08/20 04:22:30;;;;;;;12.37;10.17;;;19.50;99.90;;;;;;5033589;28;20538;-65
2022/08/20 04:24:56;;;;;;;11.60;10.40;;;19.40;99.90;;;;;;5034099;28;20274;-64
2022/08/20 04:27:22;;;;;;;16.70;10.87;;;19.40;99.90;;;;;;5034536;28;20238;-65
2022/08/20 04:29:47;;;;;;;12.40;11.30;;;19.30;99.90;;;;;;5034339;28;20187;-65
2022/08/20 04:32:13;;;;;;;13.63;12.33;;;19.40;99.90;;;;;;5034179;28;20183;-64
2022/08/20 04:34:39;;;;;;;12.80;11.50;;;19.40;99.90;;;;;;5033979;28;20195;-63
2022/08/20 04:37:05;;;;;;;13.30;12.00;;;19.40;99.90;;;;;;5034129;28;20205;-65
2022/08/20 04:39:32;;;;;;;16.10;13.13;;;19.30;99.90;;;;;;5034277;28;20176;-64
2022/08/20 04:41:57;;;;;;;19.20;13.93;;;19.30;99.90;;;;;;5034095;28;20207;-64
2022/08/20 04:44:23;;;;;;;18.97;14.03;;;19.20;99.90;;;;;;5045448;22;20263;-64
2022/08/20 04:46:49;;;;;;;22.37;15.53;;;19.20;99.90;;;;;;5017332;28;20183;-65
2022/08/20 04:49:15;;;;;;;23.13;17.00;;;19.20;99.90;;;;;;5034312;28;20222;-65
2022/08/20 04:51:40;;;;;;;22.50;16.57;;;19.20;99.90;;;;;;5032858;28;20199;-65
2022/08/20 04:54:06;;;;;;;24.83;16.63;;;19.20;99.90;;;;;;5014573;28;20199;-64
2022/08/20 04:56:37;;;;;;;29.37;19.87;;;19.20;99.90;;;;;;5014204;28;20280;-65
2022/08/20 04:59:04;;;;;;;25.00;18.03;;;19.30;99.90;;;;;;4994903;28;20565;-65
2022/08/20 05:01:29;;;;;;;28.33;18.73;;;19.30;99.90;;;;;;5011511;28;20180;-65
2022/08/20 05:03:56;;;;;;;28.50;19.03;;;19.30;99.90;;;;;;5013904;28;20199;-65
2022/08/20 05:06:32;;;;;;;29.70;19.10;;;19.20;99.90;;;;;;5013992;28;20271;-65
2022/08/20 05:08:59;;;;;;;33.07;21.00;;;19.20;99.90;;;;;;5014323;28;20654;-65
2022/08/20 05:11:25;;;;;;;37.43;22.97;;;19.20;99.90;;;;;;5013823;28;20271;-65
2022/08/20 05:13:51;;;;;;;44.80;24.70;;;19.20;99.90;;;;;;5013670;28;20184;-65
2022/08/20 05:16:17;;;;;;;37.00;22.10;;;19.20;99.90;;;;;;5013647;28;20208;-63
2022/08/20 05:18:44;;;;;;;43.60;24.93;;;19.10;99.90;;;;;;5013888;28;20218;-65
2022/08/20 05:21:09;;;;;;;36.70;24.13;;;19.10;99.90;;;;;;5013820;28;20179;-65
2022/08/20 05:23:41;;;;;;;33.37;22.57;;;19.10;99.90;;;;;;5013029;28;20278;-65
2022/08/20 05:26:09;;;;;;;40.77;24.90;;;19.20;99.90;;;;;;5013662;28;20220;-65
2022/08/20 05:28:37;;;;;;;38.77;23.70;;;19.20;99.90;;;;;;5013228;28;20188;-65
2022/08/20 05:31:08;;;;;;;40.70;23.73;;;19.10;99.90;;;;;;5013622;28;20191;-65
2022/08/20 05:33:34;;;;;;;35.27;23.93;;;19.10;99.90;;;;;;5013097;28;20555;-65
2022/08/20 05:36:00;;;;;;;39.73;24.30;;;19.00;99.90;;;;;;5013529;28;20235;-64
2022/08/20 05:38:28;;;;;;;44.70;24.97;;;19.00;99.90;;;;;;5013539;28;20196;-65
2022/08/20 05:40:53;;;;;;;43.53;26.53;;;19.00;99.90;;;;;;5013440;28;20183;-66
2022/08/20 05:43:20;;;;;;;51.70;26.33;;;19.00;99.90;;;;;;5013339;28;20204;-65
2022/08/20 05:45:50;;;;;;;46.50;25.87;;;19.00;99.90;;;;;;5012833;28;20215;-64
2022/08/20 05:48:21;;;;;;;50.97;27.13;;;18.90;99.90;;;;;;5013765;28;20172;-64
2022/08/20 05:50:49;;;;;;;44.03;27.17;;;18.90;99.90;;;;;;5013152;28;20192;-65
2022/08/20 05:53:16;;;;;;;45.30;26.73;;;18.90;99.90;;;;;;5011556;28;20203;-65
2022/08/20 05:55:43;;;;;;;38.47;24.23;;;18.90;99.90;;;;;;5016404;28;20210;-66
2022/08/20 05:58:17;;;;;;;43.90;25.40;;;18.90;99.90;;;;;;5033042;28;20163;-65
2022/08/20 06:00:43;;;;;;;40.77;24.77;;;18.80;99.90;;;;;;5015616;28;20182;-65
2022/08/20 06:05:53;;;;;;;39.67;24.13;;;19.00;99.90;;;;;;5013073;28;20179;-65
2022/08/20 06:08:19;;;;;;;34.03;22.67;;;19.00;99.90;;;;;;5012640;28;20637;-66
2022/08/20 06:10:45;;;;;;;34.47;22.37;;;19.00;99.90;;;;;;5013401;28;20263;-66
2022/08/20 06:13:10;;;;;;;39.93;23.00;;;19.10;99.90;;;;;;5010956;28;20652;-66
2022/08/20 06:15:36;;;;;;;32.37;21.83;;;19.10;99.90;;;;;;5012489;28;20212;-65
2022/08/20 06:18:06;;;;;;;32.70;22.40;;;19.10;99.90;;;;;;5012947;28;20203;-66
2022/08/20 06:20:33;;;;;;;33.87;21.97;;;19.20;99.90;;;;;;5012829;28;20252;-65
2022/08/20 06:22:58;;;;;;;40.63;36.73;;;19.20;99.90;;;;;;5011483;28;20482;-65
2022/08/20 06:25:24;;;;;;;29.90;20.93;;;19.30;99.90;;;;;;5012345;28;20574;-67
2022/08/20 06:27:49;;;;;;;27.33;19.63;;;19.30;99.90;;;;;;5012839;28;20190;-66
2022/08/20 06:30:16;;;;;;;29.50;21.13;;;19.20;99.90;;;;;;5012727;28;20230;-66
2022/08/20 06:32:42;;;;;;;24.00;18.77;;;19.30;99.90;;;;;;5013178;28;20191;-67
2022/08/20 06:35:09;;;;;;;29.70;18.80;;;19.30;99.90;;;;;;5012627;28;20196;-65
2022/08/20 06:37:37;;;;;;;23.53;16.27;;;19.30;99.90;;;;;;5012641;28;20184;-65
2022/08/20 06:40:09;;;;;;;22.20;17.87;;;19.30;99.90;;;;;;5011765;28;20172;-66
2022/08/20 06:42:35;;;;;;;20.57;16.57;;;19.30;99.90;;;;;;5012371;28;20169;-65
2022/08/20 06:45:04;;;;;;;26.57;18.87;;;19.20;99.90;;;;;;5011806;28;20214;-64
2022/08/20 06:47:31;;;;;;;21.07;16.60;;;19.20;99.90;;;;;;5012439;28;20568;-65
2022/08/20 06:49:57;;;;;;;22.57;16.83;;;19.20;99.90;;;;;;5012440;28;20192;-64
2022/08/20 06:52:22;;;;;;;18.90;15.67;;;19.20;99.90;;;;;;5012206;28;20180;-66
2022/08/20 06:54:48;;;;;;;17.77;15.67;;;19.30;99.90;;;;;;5012075;28;20653;-66
2022/08/20 06:57:13;;;;;;;20.80;15.63;;;19.20;99.90;;;;;;5012165;28;20207;-65
2022/08/20 06:59:40;;;;;;;19.97;15.27;;;19.20;99.90;;;;;;5012046;28;20241;-64
2022/08/20 07:02:06;;;;;;;18.63;15.30;;;19.20;99.90;;;;;;5011625;28;20271;-66
2022/08/20 07:04:32;;;;;;;18.13;15.50;;;19.20;99.90;;;;;;5011303;28;20274;-66
2022/08/20 07:06:58;;;;;;;16.23;14.40;;;19.20;99.90;;;;;;5012092;28;20617;-65
2022/08/20 07:09:25;;;;;;;17.13;15.33;;;19.10;99.90;;;;;;5012160;28;20272;-64
2022/08/20 07:11:51;;;;;;;20.00;15.13;;;19.10;99.90;;;;;;5012715;28;20176;-66
2022/08/20 07:14:17;;;;;;;16.13;14.43;;;19.10;99.90;;;;;;5012030;28;20196;-65
2022/08/20 07:16:45;;;;;;;17.73;14.77;;;19.20;99.90;;;;;;5012393;28;20218;-66
2022/08/20 07:19:11;;;;;;;19.20;13.57;;;19.20;99.90;;;;;;5011976;28;20177;-66
2022/08/20 07:21:37;;;;;;;15.80;13.77;;;19.40;99.90;;;;;;5010860;28;20202;-66
2022/08/20 07:24:03;;;;;;;20.57;14.67;;;19.40;99.90;;;;;;5010844;28;20192;-65
2022/08/20 07:26:28;;;;;;;20.43;14.73;;;19.40;99.90;;;;;;5011574;28;20184;-66
2022/08/20 07:28:54;;;;;;;19.50;14.90;;;19.50;99.90;;;;;;5013128;28;20176;-66
2022/08/20 07:34:04;;;;;;;18.07;16.20;;;19.80;99.90;;;;;;5011489;28;20253;-65
2022/08/20 07:36:30;;;;;;;18.77;16.63;;;20.00;99.90;;;;;;5011114;28;20233;-65
2022/08/20 07:38:56;;;;;;;16.23;14.63;;;20.20;99.90;;;;;;5011991;28;20184;-64
2022/08/20 07:41:21;;;;;;;15.53;13.97;;;20.30;99.90;;;;;;5011532;28;20660;-66
2022/08/20 07:43:47;;;;;;;15.90;14.03;;;20.40;99.90;;;;;;5011268;28;20204;-65
2022/08/20 07:46:15;;;;;;;16.93;14.37;;;20.40;99.90;;;;;;5011447;28;20192;-65
2022/08/20 07:48:45;;;;;;;16.10;14.40;;;20.60;99.90;;;;;;5011477;28;20179;-65
2022/08/20 07:51:12;;;;;;;18.43;16.73;;;20.50;99.90;;;;;;5012864;28;20188;-65
2022/08/20 07:53:39;;;;;;;14.27;12.80;;;20.60;99.90;;;;;;5015453;28;20203;-67
2022/08/20 07:56:10;;;;;;;15.20;13.70;;;20.50;99.90;;;;;;5015226;28;20200;-65
2022/08/20 07:58:40;;;;;;;17.13;15.20;;;20.40;99.90;;;;;;5015373;28;20536;-67
2022/08/20 08:01:06;;;;;;;19.80;15.27;;;20.30;99.90;;;;;;5015084;28;20168;-65
2022/08/20 08:03:32;;;;;;;16.53;13.87;;;20.40;99.90;;;;;;5014056;28;20203;-65
2022/08/20 08:05:59;;;;;;;16.00;13.40;;;20.10;99.90;;;;;;5015162;28;20263;-64
2022/08/20 08:08:27;;;;;;;17.87;13.40;;;19.90;99.90;;;;;;5015011;28;20180;-64
2022/08/20 08:10:58;;;;;;;21.43;14.20;;;19.90;99.90;;;;;;5014936;28;20176;-65
2022/08/20 08:13:26;;;;;;;16.70;14.23;;;19.90;99.90;;;;;;5014882;28;20204;-64
2022/08/20 08:15:56;;;;;;;15.97;14.23;;;20.00;99.90;;;;;;5015106;28;20219;-64
2022/08/20 08:18:26;;;;;;;14.43;12.37;;;20.20;99.90;;;;;;5015167;28;20168;-65
2022/08/20 08:20:53;;;;;;;15.47;12.33;;;20.10;99.90;;;;;;5014930;28;20259;-65
2022/08/20 08:23:21;;;;;;;16.80;13.27;;;20.20;99.90;;;;;;5014599;28;20712;-64
2022/08/20 08:25:50;;;;;;;21.90;18.43;;;20.20;99.90;;;;;;5014222;28;20181;-66
2022/08/20 08:28:16;;;;;;;15.07;13.53;;;20.30;99.90;;;;;;5015046;28;20179;-65
2022/08/20 08:30:43;;;;;;;13.90;12.23;;;20.60;99.90;;;;;;5014531;28;20190;-65
2022/08/20 08:33:32;;;;;;;18.00;16.10;;;20.70;99.90;;;;;;5014374;28;20177;-64
2022/08/20 08:36:08;;;;;;;17.00;10.93;;;21.20;99.90;;;;;;5014865;28;20208;-64
2022/08/20 08:38:36;;;;;;;17.33;12.33;;;21.20;99.90;;;;;;5014249;28;20237;-64
2022/08/20 08:41:19;;;;;;;17.47;11.23;;;21.00;99.90;;;;;;5014077;28;20172;-64
2022/08/20 08:43:48;;;;;;;13.87;12.67;;;21.10;99.90;;;;;;5014237;28;20207;-65
2022/08/20 08:46:19;;;;;;;14.00;11.00;;;21.00;99.90;;;;;;5014592;28;20218;-63
2022/08/20 08:48:48;;;;;;;9.00;8.13;;;20.80;99.90;;;;;;5014781;28;20172;-65
2022/08/20 08:51:21;;;;;;;11.00;9.70;;;20.70;99.90;;;;;;5014817;28;20537;-67
2022/08/20 08:53:54;;;;;;;16.17;9.70;;;21.20;99.90;;;;;;5013400;28;20231;-64
2022/08/20 08:56:24;;;;;;;12.82;9.45;;;21.90;99.90;;;;;;5014407;28;20195;-66
2022/08/20 08:58:49;;;;;;;9.88;8.77;;;22.20;99.90;;;;;;5014479;28;20180;-66
2022/08/20 09:01:22;;;;;;;14.10;9.57;;;22.30;99.90;;;;;;5014365;28;20716;-64
2022/08/20 09:03:50;;;;;;;15.05;9.85;;;22.30;99.90;;;;;;5013433;28;20540;-65
2022/08/20 09:06:21;;;;;;;13.27;10.32;;;22.20;99.90;;;;;;5014274;28;20176;-65
2022/08/20 09:09:01;;;;;;;13.70;11.37;;;22.10;99.90;;;;;;5014409;28;20176;-66
2022/08/20 09:11:28;;;;;;;12.52;10.63;;;21.90;99.90;;;;;;5014483;28;20180;-64
2022/08/20 09:13:53;;;;;;;10.80;9.70;;;21.90;99.90;;;;;;5013179;28;20208;-67
2022/08/20 09:16:21;;;;;;;14.87;10.93;;;21.70;99.90;;;;;;5013631;28;20673;-65
2022/08/20 09:18:47;;;;;;;17.40;11.77;;;21.50;99.90;;;;;;5014162;28;20606;-67
2022/08/20 09:21:13;;;;;;;18.93;13.57;;;21.50;99.90;;;;;;5013906;28;20513;-66
2022/08/20 09:23:39;;;;;;;21.40;14.07;;;21.70;99.90;;;;;;5013622;28;20678;-67
2022/08/20 09:26:05;;;;;;;15.60;11.45;;;21.70;99.90;;;;;;5013652;28;20267;-65
2022/08/20 09:28:31;;;;;;;14.55;11.00;;;22.00;99.90;;;;;;5013795;28;20255;-67
2022/08/20 09:30:57;;;;;;;14.00;10.63;;;21.90;99.90;;;;;;5012235;28;20769;-67
2022/08/20 09:33:23;;;;;;;14.82;10.25;;;21.80;99.90;;;;;;5023813;28;20694;-66
2022/08/20 09:35:48;;;;;;;18.10;11.03;;;21.80;99.90;;;;;;5022320;28;20211;-65
2022/08/20 09:38:14;;;;;;;18.95;12.23;;;21.80;99.90;;;;;;5013377;28;20255;-66
2022/08/20 09:40:39;;;;;;;13.07;11.70;;;21.80;99.90;;;;;;5013680;28;20208;-67
2022/08/20 09:43:06;;;;;;;22.13;12.88;;;21.80;99.90;;;;;;5013335;28;20172;-66
2022/08/20 09:45:31;;;;;;;17.15;12.73;;;21.80;99.90;;;;;;5013280;28;20239;-67
2022/08/20 09:47:57;;;;;;;18.38;11.93;;;21.80;99.90;;;;;;5013550;28;20571;-67
2022/08/20 09:50:27;;;;;;;16.05;13.32;;;21.70;99.90;;;;;;5013135;28;20180;-65
2022/08/20 09:52:55;;;;;;;17.23;11.23;;;21.60;99.90;;;;;;5013263;28;20665;-65
2022/08/20 09:55:25;;;;;;;13.87;10.90;;;21.50;99.90;;;;;;5013050;28;20181;-66
2022/08/20 09:57:51;;;;;;;14.17;12.70;;;21.40;99.90;;;;;;5013640;28;20172;-65
2022/08/20 10:00:18;;;;;;;12.90;11.43;;;21.30;99.90;;;;;;5013056;28;20172;-65
2022/08/20 10:02:44;;;;;;;16.80;13.03;;;21.60;99.90;;;;;;5013399;28;20610;-65
2022/08/20 10:05:10;;;;;;;18.33;10.93;;;21.60;99.90;;;;;;5012653;28;20677;-65
2022/08/20 10:07:37;;;;;;;13.20;11.68;;;21.70;99.90;;;;;;5012896;28;20180;-67
2022/08/20 10:10:04;;;;;;;23.77;12.23;;;21.60;99.90;;;;;;5013228;28;20266;-66
2022/08/20 10:12:30;;;;;;;14.73;10.13;;;21.50;99.90;;;;;;5012772;28;20180;-65
2022/08/20 10:14:55;;;;;;;11.73;10.47;;;21.60;99.90;;;;;;5011625;28;20206;-65
2022/08/20 10:17:21;;;;;;;13.50;10.47;;;22.00;99.90;;;;;;5012586;28;20563;-66
2022/08/20 10:19:47;;;;;;;14.90;10.30;;;22.40;99.90;;;;;;5012945;28;20204;-65
2022/08/20 10:22:12;;;;;;;16.58;11.23;;;22.40;99.90;;;;;;5012707;28;20180;-65
2022/08/20 10:24:38;;;;;;;13.98;9.35;;;22.40;99.90;;;;;;5012285;28;20534;-65
2022/08/20 10:27:04;;;;;;;14.02;9.50;;;22.40;99.90;;;;;;5011115;28;20207;-67
2022/08/20 10:29:30;;;;;;;10.00;8.98;;;22.40;99.90;;;;;;5020818;28;20203;-66
2022/08/20 10:32:06;;;;;;;10.52;9.05;;;22.40;99.90;;;;;;5029867;28;20176;-67
2022/08/20 10:34:31;;;;;;;12.57;10.43;;;22.30;99.90;;;;;;5012030;28;20195;-66
2022/08/20 10:36:57;;;;;;;19.67;10.60;;;22.40;99.90;;;;;;5012106;28;20220;-66
2022/08/20 10:39:23;;;;;;;13.48;11.60;;;22.40;99.90;;;;;;5012492;28;20172;-66
2022/08/20 10:41:48;;;;;;;15.30;9.90;;;22.50;99.90;;;;;;5012298;28;20169;-66
2022/08/20 10:44:16;;;;;;;12.85;9.95;;;22.60;99.90;;;;;;5012258;28;20215;-66
2022/08/20 10:46:42;;;;;;;16.48;10.77;;;22.60;99.90;;;;;;5012167;28;20195;-66
2022/08/20 10:49:07;;;;;;;13.30;10.00;;;22.70;99.90;;;;;;5012219;28;20188;-66
2022/08/20 10:51:33;;;;;;;13.18;8.40;;;23.00;99.90;;;;;;5012134;28;20226;-67
2022/08/20 10:53:59;;;;;;;12.30;7.85;;;23.90;99.90;;;;;;5011694;28;20280;-65
2022/08/20 10:56:24;;;;;;;11.25;7.53;;;24.70;99.90;;;;;;5011954;28;20212;-67
2022/08/20 10:58:50;;;;;;;12.70;9.23;;;24.90;99.90;;;;;;5010463;28;20172;-67
2022/08/20 11:01:16;;;;;;;14.27;9.98;;;25.00;99.90;;;;;;5011582;28;20230;-66
2022/08/20 11:03:41;;;;;;;14.13;9.98;;;24.90;99.90;;;;;;5011602;28;20693;-66
2022/08/20 11:06:07;;;;;;;11.50;9.23;;;25.10;99.90;;;;;;5012235;28;20184;-67
2022/08/20 11:08:32;;;;;;;12.40;9.70;;;24.90;99.90;;;;;;5011944;28;20180;-67
2022/08/20 11:10:58;;;;;;;15.35;10.60;;;24.90;99.90;;;;;;5011939;28;20549;-67
2022/08/20 11:13:23;;;;;;;13.93;10.95;;;24.90;99.90;;;;;;5011379;28;20191;-67
2022/08/20 11:15:49;;;;;;;17.95;10.32;;;24.50;99.90;;;;;;5011729;28;20208;-67
2022/08/20 11:18:15;;;;;;;12.27;9.38;;;24.10;99.90;;;;;;5011942;28;20211;-67
2022/08/20 11:20:40;;;;;;;13.93;10.40;;;23.90;99.90;;;;;;5011464;28;20168;-67
2022/08/20 11:23:06;;;;;;;15.82;11.38;;;23.70;99.90;;;;;;5011909;28;20227;-67
2022/08/20 11:25:32;;;;;;;16.85;11.45;;;23.70;99.90;;;;;;5009897;28;20169;-65
2022/08/20 11:27:57;;;;;;;17.70;12.23;;;23.70;99.90;;;;;;5010670;28;20198;-66
2022/08/20 11:30:30;;;;;;;15.98;12.57;;;23.60;99.90;;;;;;5011603;28;20180;-65
2022/08/20 11:32:56;;;;;;;14.48;11.25;;;23.60;99.90;;;;;;5011467;28;20552;-68
2022/08/20 11:35:23;;;;;;;16.35;11.15;;;23.70;99.90;;;;;;5011132;28;20578;-67
2022/08/20 11:37:50;;;;;;;13.32;9.95;;;23.70;99.90;;;;;;5011714;28;20288;-66
2022/08/20 11:40:16;;;;;;;14.70;10.85;;;23.70;99.90;;;;;;5011998;28;20164;-67
2022/08/20 11:42:41;;;;;;;11.23;10.05;;;23.90;99.90;;;;;;5011443;28;20243;-66
2022/08/20 11:45:07;;;;;;;14.43;8.75;;;25.00;99.90;;;;;;5011167;28;20218;-66
2022/08/20 11:47:34;;;;;;;14.63;10.27;;;25.80;99.90;;;;;;5011271;28;20222;-65
2022/08/20 11:50:07;;;;;;;13.50;9.98;;;26.30;99.90;;;;;;5010405;28;20230;-66
2022/08/20 11:52:33;;;;;;;16.60;11.95;;;26.50;99.90;;;;;;5011073;28;20191;-66
2022/08/20 11:54:59;;;;;;;16.77;11.98;;;26.30;99.90;;;;;;5011195;28;20282;-65
2022/08/20 11:57:28;;;;;;;15.43;11.13;;;25.90;99.90;;;;;;5011053;28;20601;-66
2022/08/20 11:59:55;;;;;;;20.30;11.07;;;26.10;99.90;;;;;;5011394;28;20176;-66
2022/08/20 12:02:21;;;;;;;15.70;12.15;;;25.80;99.90;;;;;;5011489;28;20298;-66
2022/08/20 12:04:47;;;;;;;14.60;11.45;;;25.90;99.90;;;;;;5010718;28;20219;-65
2022/08/20 12:07:18;;;;;;;17.63;13.15;;;26.20;99.90;;;;;;5011132;28;20747;-66
2022/08/20 12:09:45;;;;;;;15.68;13.05;;;26.80;99.90;;;;;;5011577;28;20187;-65
2022/08/20 12:12:10;;;;;;;16.33;12.73;;;27.60;99.90;;;;;;5010944;28;20247;-66
2022/08/20 12:14:36;;;;;;;14.82;11.18;;;28.00;99.90;;;;;;5011121;28;20307;-66
2022/08/20 12:17:20;;;;;;;16.15;11.38;;;28.50;99.90;;;;;;5011119;28;20208;-66
2022/08/20 12:19:46;;;;;;;19.13;14.88;;;27.80;99.90;;;;;;5011676;28;20221;-64
2022/08/20 12:22:12;;;;;;;19.58;10.98;;;26.50;99.90;;;;;;5011235;28;20588;-65
2022/08/20 12:24:38;;;;;;;14.55;13.02;;;26.40;99.90;;;;;;5008753;28;20238;-66
2022/08/20 12:27:09;;;;;;;11.98;10.77;;;26.80;99.90;;;;;;5011514;28;20204;-66
2022/08/20 12:29:37;;;;;;;14.95;9.20;;;27.20;99.90;;;;;;5011417;28;20234;-67
2022/08/20 12:32:05;;;;;;;7.93;7.10;;;27.40;99.90;;;;;;5011133;28;20689;-66
2022/08/20 12:34:34;;;;;;;11.38;7.97;;;27.60;99.90;;;;;;5009701;28;20204;-68
2022/08/20 12:37:06;;;;;;;10.32;8.68;;;27.60;99.90;;;;;;5011286;28;20200;-67
2022/08/20 12:39:33;;;;;;;8.82;7.20;;;27.20;99.90;;;;;;5014694;28;20239;-68
2022/08/20 12:42:01;;;;;;;11.07;7.72;;;27.00;99.90;;;;;;5015082;28;20164;-64
2022/08/20 12:44:28;;;;;;;13.98;8.63;;;27.00;99.90;;;;;;5014090;28;20212;-66